createdAt,value
2023-05-08T00:03:35.892Z,2.92
2023-05-08T00:08:37.656Z,4.00
2023-05-08T00:13:41.223Z,3.85
2023-05-08T00:18:43.298Z,2.88
2023-05-08T00:23:44.814Z,4.50
2023-05-08T00:28:46.767Z,3.55
2023-05-08T00:33:48.427Z,3.70
2023-05-08T00:38:50.824Z,4.05
2023-05-08T00:43:53.440Z,4.78
2023-05-08T00:48:55.053Z,4.90
2023-05-08T00:53:56.669Z,3.63
2023-05-08T00:58:58.732Z,10.20
2023-05-08T01:04:00.365Z,5.43
2023-05-08T01:09:02.208Z,2.65
2023-05-08T01:14:27.842Z,3.88
2023-05-08T01:19:52.678Z,3.28
2023-05-08T01:25:22.120Z,5.45
2023-05-08T01:30:44.943Z,6.13
2023-05-08T01:36:28.333Z,5.20
2023-05-08T01:41:34.266Z,4.60
2023-05-08T01:46:35.844Z,2.97
2023-05-08T01:51:43.703Z,6.97
2023-05-08T01:56:47.909Z,4.45
2023-05-08T02:01:53.210Z,4.97
2023-05-08T02:06:57.266Z,3.45
2023-05-08T02:12:02.907Z,3.70
2023-05-08T02:17:08.823Z,5.47
2023-05-08T02:22:10.906Z,4.53
2023-05-08T02:27:14.052Z,6.93
2023-05-08T02:32:17.264Z,3.58
2023-05-08T02:37:21.658Z,4.68
2023-05-08T02:42:23.503Z,5.35
2023-05-08T02:47:52.951Z,6.03
2023-05-08T02:53:03.701Z,5.68
2023-05-08T02:58:22.442Z,3.90
2023-05-08T03:03:36.311Z,4.82
2023-05-08T03:08:39.755Z,4.43
2023-05-08T03:13:45.718Z,4.15
2023-05-08T03:18:56.918Z,4.03
2023-05-08T03:24:00.612Z,2.92
2023-05-08T03:29:02.994Z,5.35
2023-05-08T03:34:09.675Z,5.75
2023-05-08T03:39:12.078Z,6.05
2023-05-08T03:44:15.453Z,5.47
2023-05-08T03:49:18.263Z,4.00
2023-05-08T03:54:25.246Z,3.65
2023-05-08T04:00:05.578Z,4.20
2023-05-08T04:05:50.044Z,5.65
2023-05-08T04:11:25.206Z,3.67
2023-05-08T04:16:28.408Z,5.60
2023-05-08T04:21:33.984Z,4.93
2023-05-08T04:26:37.121Z,4.45
2023-05-08T04:31:40.286Z,4.45
2023-05-08T04:36:42.575Z,5.50
2023-05-08T04:41:44.387Z,6.15
2023-05-08T04:46:47.026Z,4.70
2023-05-08T04:51:48.751Z,4.63
2023-05-08T04:56:50.556Z,5.20
2023-05-08T05:01:52.202Z,4.65
2023-05-08T05:06:54.313Z,5.05
2023-05-08T05:11:57.956Z,4.82
2023-05-08T05:16:59.862Z,4.28
2023-05-08T05:22:01.990Z,6.10
2023-05-08T05:27:05.995Z,3.83
2023-05-08T05:32:09.153Z,8.30
2023-05-08T05:37:11.405Z,4.75
2023-05-08T05:42:13.117Z,4.45
2023-05-08T05:47:14.913Z,5.57
2023-05-08T05:52:17.180Z,4.72
2023-05-08T05:57:19.721Z,6.43
2023-05-08T06:02:21.505Z,6.07
2023-05-08T06:07:23.133Z,7.30
2023-05-08T06:12:24.809Z,5.00
2023-05-08T06:17:26.911Z,7.28
2023-05-08T06:22:29.930Z,6.13
2023-05-08T06:27:31.660Z,3.83
2023-05-08T06:32:33.174Z,5.65
2023-05-08T06:37:34.651Z,5.20
2023-05-08T06:42:36.450Z,6.90
2023-05-08T06:47:37.941Z,6.68
2023-05-08T06:52:39.519Z,6.82
2023-05-08T06:57:41.078Z,6.85
2023-05-08T07:02:42.594Z,6.03
2023-05-08T07:07:44.109Z,5.88
2023-05-08T07:12:45.706Z,7.82
2023-05-08T07:17:47.413Z,6.43
2023-05-08T07:22:48.973Z,5.38
2023-05-08T07:32:52.222Z,6.57
2023-05-08T07:37:53.791Z,6.43
2023-05-08T07:42:55.235Z,5.80
2023-05-08T07:48:00.011Z,5.85
2023-05-08T07:53:02.142Z,5.68
2023-05-08T07:58:03.752Z,7.10
2023-05-08T08:03:05.281Z,10.40
2023-05-08T08:08:06.817Z,7.25
2023-05-08T08:13:08.327Z,5.55
2023-05-08T08:23:11.307Z,5.85
2023-05-08T08:28:12.784Z,5.75
2023-05-08T08:33:15.013Z,6.75
2023-05-08T08:38:17.826Z,9.18
2023-05-08T08:43:19.341Z,7.97
2023-05-08T08:48:25.836Z,6.40
2023-05-08T08:53:34.937Z,5.85
2023-05-08T08:58:40.843Z,7.43
2023-05-08T09:03:42.562Z,10.90
2023-05-08T09:08:44.832Z,5.28
2023-05-08T09:13:46.415Z,6.82
2023-05-08T09:18:48.343Z,7.38
2023-05-08T09:23:59.614Z,9.02
2023-05-08T09:29:18.218Z,7.90
2023-05-08T09:34:29.280Z,8.38
2023-05-08T09:39:30.825Z,8.05
2023-05-08T09:44:54.358Z,6.43
2023-05-08T09:50:10.604Z,8.30
2023-05-08T09:55:12.697Z,6.97
2023-05-08T10:00:15.049Z,6.40
2023-05-08T10:05:23.016Z,6.75
2023-05-08T10:10:26.694Z,7.10
2023-05-08T10:20:31.237Z,8.45
2023-05-08T10:25:34.624Z,7.43
2023-05-08T10:30:41.419Z,8.85
2023-05-08T10:35:45.023Z,7.05
2023-05-08T10:40:48.274Z,6.22
2023-05-08T10:45:49.879Z,6.70
2023-05-08T10:51:02.437Z,8.10
2023-05-08T10:56:04.801Z,6.82
2023-05-08T11:01:09.158Z,7.75
2023-05-08T11:06:11.148Z,9.95
2023-05-08T11:11:27.870Z,6.68
2023-05-08T11:16:54.964Z,8.70
2023-05-08T11:22:15.726Z,8.43
2023-05-08T11:27:17.507Z,8.57
2023-05-08T11:32:19.076Z,7.90
2023-05-08T11:37:22.476Z,8.98
2023-05-08T11:42:29.549Z,8.77
2023-05-08T11:47:45.097Z,8.15
2023-05-08T11:57:48.265Z,7.82
2023-05-08T12:02:50.042Z,8.27
2023-05-08T12:07:51.686Z,8.77
2023-05-08T12:12:53.241Z,7.40
2023-05-08T12:18:02.748Z,9.27
2023-05-08T12:23:04.437Z,9.88
2023-05-08T12:28:11.820Z,7.53
2023-05-08T12:33:14.809Z,8.50
2023-05-08T12:38:16.426Z,9.02
2023-05-08T12:43:17.926Z,11.35
2023-05-08T12:48:20.047Z,8.35
2023-05-08T12:53:21.948Z,10.13
2023-05-08T12:58:49.536Z,7.93
2023-05-08T13:04:01.517Z,9.52
2023-05-08T13:09:04.398Z,11.82
2023-05-08T13:14:05.915Z,8.75
2023-05-08T13:19:07.385Z,8.40
2023-05-08T13:24:08.981Z,6.70
2023-05-08T13:29:10.590Z,7.65
2023-05-08T13:34:12.062Z,7.93
2023-05-08T13:39:13.511Z,10.05
2023-05-08T13:44:15.008Z,8.00
2023-05-08T13:49:18.106Z,7.22
2023-05-08T13:54:19.567Z,8.52
2023-05-08T13:59:21.099Z,9.82
2023-05-08T14:04:22.655Z,7.88
2023-05-08T14:09:24.260Z,8.57
2023-05-08T14:14:25.768Z,8.45
2023-05-08T14:19:27.269Z,9.07
2023-05-08T14:24:28.763Z,11.10
2023-05-08T14:29:30.267Z,9.32
2023-05-08T14:34:31.779Z,8.90
2023-05-08T14:39:33.272Z,6.95
2023-05-08T14:44:34.882Z,6.78
2023-05-08T14:49:38.483Z,6.60
2023-05-08T14:54:40.634Z,7.40
2023-05-08T14:59:49.306Z,15.00
2023-05-08T15:04:56.371Z,6.38
2023-05-08T15:09:57.849Z,9.02
2023-05-08T15:15:01.609Z,7.47
2023-05-08T15:20:06.040Z,7.03
2023-05-08T15:25:07.890Z,7.28
2023-05-08T15:30:09.868Z,6.47
2023-05-08T15:35:11.412Z,7.43
2023-05-08T15:40:13.113Z,7.43
2023-05-08T15:45:16.053Z,6.78
2023-05-08T15:50:17.791Z,8.63
2023-05-08T15:55:20.374Z,6.05
2023-05-08T16:00:25.145Z,5.80
2023-05-08T16:05:28.966Z,8.27
2023-05-08T16:10:30.548Z,5.97
2023-05-08T16:15:32.021Z,5.60
2023-05-08T16:20:35.738Z,5.47
2023-05-08T16:25:37.794Z,5.32
2023-05-08T16:30:39.274Z,5.50
2023-05-08T16:35:40.761Z,5.07
2023-05-08T16:40:42.814Z,6.43
2023-05-08T16:45:44.293Z,7.00
2023-05-08T16:50:45.752Z,7.38
2023-05-08T16:55:47.505Z,4.93
2023-05-08T17:00:49.502Z,6.43
2023-05-08T17:05:51.157Z,6.07
2023-05-08T17:10:54.116Z,6.15
2023-05-08T17:15:55.649Z,5.53
2023-05-08T17:20:57.145Z,7.20
2023-05-08T17:25:59.673Z,6.68
2023-05-08T17:31:01.364Z,6.85
2023-05-08T17:36:02.863Z,8.07
2023-05-08T17:41:04.357Z,5.72
2023-05-08T17:46:07.115Z,6.00
2023-05-08T17:51:12.034Z,6.25
2023-05-08T17:56:13.841Z,8.18
2023-05-08T18:01:15.396Z,8.13
2023-05-08T18:06:20.280Z,6.20
2023-05-08T18:11:24.745Z,7.20
2023-05-08T18:16:26.300Z,6.43
2023-05-08T18:21:28.754Z,5.78
2023-05-08T18:26:30.663Z,6.07
2023-05-08T18:31:32.439Z,6.15
2023-05-08T18:36:33.933Z,5.72
2023-05-08T18:41:36.464Z,4.43
2023-05-08T18:46:38.065Z,5.35
2023-05-08T18:51:39.563Z,4.43
2023-05-08T18:56:41.201Z,5.78
2023-05-08T19:01:43.008Z,4.60
2023-05-08T19:06:44.608Z,4.55
2023-05-08T19:11:46.116Z,5.15
2023-05-08T19:16:47.685Z,6.75
2023-05-08T19:21:49.147Z,5.00
2023-05-08T19:26:50.770Z,5.95
2023-05-08T19:31:52.317Z,5.43
2023-05-08T19:36:53.775Z,5.03
2023-05-08T19:41:56.210Z,4.72
2023-05-08T19:46:57.758Z,3.72
2023-05-08T19:51:59.324Z,4.78
2023-05-08T19:57:00.889Z,4.97
2023-05-08T20:02:02.681Z,5.63
2023-05-08T20:07:04.211Z,3.65
2023-05-08T20:12:06.047Z,4.28
2023-05-08T20:17:07.543Z,6.32
2023-05-08T20:22:09.062Z,4.43
2023-05-08T20:27:11.020Z,4.90
2023-05-08T20:32:14.843Z,4.53
2023-05-08T20:37:16.564Z,5.45
2023-05-08T20:42:18.154Z,5.68
2023-05-08T20:47:19.696Z,5.22
2023-05-08T20:52:21.306Z,5.10
2023-05-08T20:57:22.797Z,5.75
2023-05-08T21:02:24.627Z,4.35
2023-05-08T21:07:26.211Z,4.30
2023-05-08T21:12:27.674Z,4.43
2023-05-08T21:17:29.177Z,7.43
2023-05-08T21:22:32.930Z,4.90
2023-05-08T21:27:48.294Z,4.20
2023-05-08T21:32:50.074Z,4.10
2023-05-08T21:37:53.868Z,3.63
2023-05-08T21:42:56.041Z,4.30
2023-05-08T21:47:58.549Z,4.43
2023-05-08T21:53:00.062Z,3.85
2023-05-08T21:58:01.734Z,4.50
2023-05-08T22:03:03.403Z,6.13
2023-05-08T22:08:05.373Z,4.22
2023-05-08T22:13:07.383Z,5.45
2023-05-08T22:18:09.093Z,6.55
2023-05-08T22:23:10.930Z,4.70
2023-05-08T22:28:12.496Z,6.22
2023-05-08T22:33:13.961Z,4.07
2023-05-08T22:38:15.552Z,2.58
2023-05-08T22:43:17.173Z,4.40
2023-05-08T22:48:18.671Z,5.88
2023-05-08T22:53:20.155Z,4.45
2023-05-08T22:58:21.675Z,4.93
2023-05-08T23:03:23.428Z,3.92
2023-05-08T23:08:25.024Z,5.03
2023-05-08T23:13:26.716Z,3.75
2023-05-08T23:18:28.297Z,3.67
2023-05-08T23:23:30.799Z,4.65
2023-05-08T23:28:35.707Z,5.07
2023-05-08T23:33:37.162Z,3.92
2023-05-08T23:38:38.638Z,4.45
2023-05-08T23:43:40.314Z,3.97
2023-05-08T23:48:42.070Z,5.10
2023-05-08T23:53:43.621Z,3.95
2023-05-08T23:58:45.089Z,5.60
